Time;durP1;ratioP1;P1;durP2;ratioP2;P2;SDS_P1;SDS_P2;PMS_P1;PMS_P2;Temp;Humidity;BMP_temperature;BMP_pressure;BME280_temperature;BME280_humidity;BME280_pressure;Samples;Min_cycle;Max_cycle;Signal;HPM_P1;HPM_P2
2022/05/21 00:00:38;;;;;;;5.00;4.53;;;;;;;16.88;78.86;99870.78;1758070;81;21054;-68
2022/05/21 00:03:05;;;;;;;6.35;4.72;;;;;;;16.88;78.89;99872.13;1757938;81;21459;-68
2022/05/21 00:05:37;;;;;;;6.87;5.17;;;;;;;16.87;78.96;99874.52;1757579;81;21010;-68
2022/05/21 00:08:00;;;;;;;7.75;5.83;;;;;;;16.85;79.02;99888.74;1756785;81;21533;-68
2022/05/21 00:10:27;;;;;;;11.57;6.05;;;;;;;16.82;79.08;99881.08;1757843;81;20867;-68
2022/05/21 00:12:54;;;;;;;6.33;5.40;;;;;;;16.81;79.19;99882.15;1757913;81;20935;-68
2022/05/21 00:15:22;;;;;;;7.03;5.25;;;;;;;16.83;79.27;99880.04;1757653;81;21217;-68
2022/05/21 00:17:49;;;;;;;7.75;5.60;;;;;;;16.85;79.35;99869.88;1758004;81;21034;-68
2022/05/21 00:21:15;;;;;;;5.95;5.03;;;;;;;16.86;79.41;99873.69;1750643;80;20974;-68
2022/05/21 00:22:52;;;;;;;6.53;4.53;;;;;;;16.83;79.46;99867.92;1718189;82;21082;-68
2022/05/21 00:25:18;;;;;;;7.90;4.12;;;;;;;16.80;79.54;99867.03;1749575;82;21475;-68
2022/05/21 00:27:44;;;;;;;4.20;3.80;;;;;;;16.77;79.57;99878.25;1749169;82;21119;-68
2022/05/21 00:30:13;;;;;;;4.85;3.10;;;;;;;16.76;79.63;99876.59;1749440;82;20987;-68
2022/05/21 00:32:40;;;;;;;4.30;3.47;;;;;;;16.73;79.67;99877.04;1749513;82;20998;-68
2022/05/21 00:35:07;;;;;;;5.12;3.25;;;;;;;16.70;79.70;99877.48;1749342;81;21113;-68
2022/05/21 00:37:33;;;;;;;3.62;3.10;;;;;;;16.68;79.72;99881.73;1749067;82;20987;-68
2022/05/21 00:39:59;;;;;;;4.55;2.92;;;;;;;16.70;79.76;99876.14;1749590;82;21267;-68
2022/05/21 00:42:25;;;;;;;2.90;2.60;;;;;;;16.72;79.80;99885.64;1749309;81;20929;-68
2022/05/21 00:44:51;;;;;;;3.02;2.72;;;;;;;16.71;79.82;99877.25;1749351;82;20966;-68
2022/05/21 00:47:17;;;;;;;2.80;2.52;;;;;;;16.68;79.86;99875.00;1749532;82;20945;-68
2022/05/21 00:49:44;;;;;;;2.75;2.47;;;;;;;16.68;79.90;99872.83;1749253;82;21468;-67
2022/05/21 00:52:17;;;;;;;4.47;3.00;;;;;;;16.67;79.94;99869.86;1749370;82;21314;-68
2022/05/21 00:54:49;;;;;;;5.08;2.75;;;;;;;16.64;80.02;99879.73;1749416;82;21033;-68
2022/05/21 00:57:25;;;;;;;3.72;2.85;;;;;;;16.63;80.06;99883.46;1749239;82;21502;-68
2022/05/21 00:59:56;;;;;;;3.87;2.90;;;;;;;16.62;80.08;99875.08;1747997;82;21399;-68
2022/05/21 01:02:38;;;;;;;3.65;3.33;;;;;;;16.62;80.18;99884.50;1749069;82;20983;-68
2022/05/21 01:05:08;;;;;;;4.03;3.30;;;;;;;16.59;80.23;99880.91;1748989;82;21804;-68
2022/05/21 01:07:38;;;;;;;5.72;4.12;;;;;;;16.55;80.29;99885.88;1749234;82;20991;-68
2022/05/21 01:10:05;;;;;;;;;;;;;;;16.50;80.34;99891.91;1752102;82;20998;-68
2022/05/21 01:12:34;;;;;;;4.40;3.40;;;;;;;16.50;80.40;99894.61;1765249;80;20120;-68
2022/05/21 01:15:04;;;;;;;;;;;;;;;16.49;80.43;99903.75;1782637;80;20991;-68
2022/05/21 01:17:30;;;;;;;4.05;3.17;;;;;;;16.46;80.46;99906.88;1780565;80;20999;-67
2022/05/21 01:20:08;;;;;;;4.72;3.65;;;;;;;16.42;80.52;99908.36;1780002;80;20879;-68
2022/05/21 01:22:51;;;;;;;5.85;4.10;;;;;;;16.41;80.62;99908.05;1780492;80;20994;-68
2022/05/21 01:25:21;;;;;;;4.17;3.77;;;;;;;16.39;80.69;99909.33;1779891;80;21034;-68
2022/05/21 01:27:49;;;;;;;6.28;4.25;;;;;;;16.39;80.81;99895.87;1779541;80;20994;-68
2022/05/21 01:30:19;;;;;;;5.97;4.80;;;;;;;16.39;80.86;99904.77;1780341;80;21232;-68
2022/05/21 01:32:46;;;;;;;8.28;6.05;;;;;;;16.42;81.00;99916.44;1780088;80;20983;-68
2022/05/21 01:35:12;;;;;;;5.35;4.85;;;;;;;16.47;81.15;99908.52;1780279;80;21491;-67
2022/05/21 01:37:39;;;;;;;7.10;5.90;;;;;;;16.53;81.23;99916.77;1780211;80;20888;-68
2022/05/21 01:40:07;;;;;;;7.15;5.80;;;;;;;16.57;81.38;99923.39;1780207;80;21444;-68
2022/05/21 01:42:34;;;;;;;7.97;6.28;;;;;;;16.60;81.46;99921.60;1780387;80;21714;-67
2022/05/21 01:45:01;;;;;;;8.45;5.90;;;;;;;16.61;81.54;99919.19;1779977;80;20971;-68
2022/05/21 01:47:29;;;;;;;6.50;5.78;;;;;;;16.65;81.67;99928.48;1780348;80;20859;-68
2022/05/21 01:49:55;;;;;;;9.10;6.47;;;;;;;16.69;81.78;99925.13;1747655;80;21007;-68
2022/05/21 01:52:21;;;;;;;8.38;7.17;;;;;;;16.73;81.89;99922.82;1780440;80;21461;-68
2022/05/21 01:54:47;;;;;;;8.33;6.97;;;;;;;16.77;81.99;99932.11;1779804;80;21816;-68
2022/05/21 01:57:13;;;;;;;9.50;8.55;;;;;;;16.82;82.14;99930.91;1780039;80;21673;-67
2022/05/21 01:59:39;;;;;;;9.28;8.13;;;;;;;16.86;82.33;99940.20;1780282;80;20995;-67
2022/05/21 02:02:06;;;;;;;9.10;7.67;;;;;;;16.90;82.45;99942.75;1780318;80;20979;-68
2022/05/21 02:04:33;;;;;;;9.85;8.85;;;;;;;16.93;82.60;99947.69;1780270;80;21428;-68
2022/05/21 02:06:59;;;;;;;9.90;9.00;;;;;;;16.99;82.77;99938.73;1780303;80;21298;-68
2022/05/21 02:09:25;;;;;;;11.65;9.05;;;;;;;17.03;82.91;99953.39;1780141;80;20875;-68
2022/05/21 02:11:51;;;;;;;14.13;8.73;;;;;;;17.08;83.00;99971.07;1780141;80;20978;-68
2022/05/21 02:14:17;;;;;;;10.40;7.72;;;;;;;17.11;83.17;99980.05;1780356;80;20864;-68
2022/05/21 02:16:43;;;;;;;7.45;6.20;;;;;;;17.13;83.42;99998.19;1780262;80;20962;-68
2022/05/21 02:19:09;;;;;;;6.60;5.10;;;;;;;17.13;83.48;99995.49;1780116;80;21331;-68
2022/05/21 02:21:38;;;;;;;8.28;5.70;;;;;;;17.06;83.41;100002.81;1780247;80;20923;-68
2022/05/21 02:24:05;;;;;;;5.12;4.28;;;;;;;16.96;83.33;100009.20;1780262;80;21042;-68
2022/05/21 02:26:35;;;;;;;6.50;2.50;;;;;;;16.84;83.19;100025.80;1780193;79;21109;-68
2022/05/21 02:29:02;;;;;;;3.77;2.27;;;;;;;16.56;82.70;100035.64;1780277;80;21034;-68
2022/05/21 02:31:28;;;;;;;3.80;2.40;;;;;;;16.27;82.27;100039.71;1780326;80;21483;-68
2022/05/21 02:33:54;;;;;;;2.95;1.80;;;;;;;16.07;81.98;100061.86;1780115;80;20871;-68
2022/05/21 02:39:25;;;;;;;3.45;1.67;;;;;;;15.86;81.67;100076.94;1780261;80;20974;-68
2022/05/21 02:41:32;;;;;;;2.33;1.60;;;;;;;15.59;81.19;100096.33;1779676;80;20971;-68
2022/05/21 02:43:58;;;;;;;4.37;2.00;;;;;;;15.45;80.93;100111.63;1780801;80;21138;-68
2022/05/21 02:46:24;;;;;;;5.40;1.60;;;;;;;15.35;80.75;100093.75;1780519;80;20955;-68
2022/05/21 02:48:50;;;;;;;1.50;1.40;;;;;;;15.29;80.57;100106.69;1780904;80;20876;-68
2022/05/21 02:51:16;;;;;;;6.87;1.50;;;;;;;15.19;80.42;100119.70;1780742;80;20844;-68
2022/05/21 02:53:42;;;;;;;2.60;1.62;;;;;;;15.07;80.27;100113.28;1780956;80;20986;-68
2022/05/21 02:56:09;;;;;;;1.70;1.60;;;;;;;14.97;80.18;100124.44;1780803;80;21744;-68
2022/05/21 02:58:35;;;;;;;3.05;1.27;;;;;;;14.90;80.05;100113.38;1780710;80;20917;-68
2022/05/21 03:01:01;;;;;;;1.60;1.50;;;;;;;14.84;79.96;100108.84;1780955;80;20938;-68
2022/05/21 03:03:27;;;;;;;3.05;1.60;;;;;;;14.79;79.88;100123.38;1780819;80;21060;-68
2022/05/21 03:11:22;;;;;;;3.83;1.42;;;;;;;14.63;79.60;100127.79;1759995;81;20970;-68
2022/05/21 03:13:48;;;;;;;2.72;1.22;;;;;;;14.61;79.51;100127.14;1759631;81;21457;-68
2022/05/21 03:16:14;;;;;;;1.42;1.22;;;;;;;14.58;79.46;100134.27;1759875;81;21656;-67
2022/05/21 03:18:40;;;;;;;4.00;1.42;;;;;;;14.56;79.40;100130.97;1759788;80;20974;-68
2022/05/21 03:21:06;;;;;;;1.55;1.40;;;;;;;14.56;79.30;100126.44;1756689;80;20929;-68
2022/05/21 03:23:32;;;;;;;2.58;1.20;;;;;;;14.56;79.24;100124.26;1756226;81;21007;-68
2022/05/21 03:25:58;;;;;;;1.92;1.30;;;;;;;14.54;79.17;100130.33;1756198;81;21882;-68
2022/05/21 03:28:24;;;;;;;2.37;1.25;;;;;;;14.53;79.09;100130.84;1755954;81;20842;-68
2022/05/21 03:30:50;;;;;;;4.40;1.07;;;;;;;14.54;78.99;100133.84;1756007;81;20913;-68
2022/05/21 03:33:16;;;;;;;3.30;1.35;;;;;;;14.57;78.92;100137.97;1756222;81;21545;-68
2022/05/21 03:35:42;;;;;;;1.55;1.40;;;;;;;14.62;78.80;100150.28;1756138;81;21015;-68
2022/05/21 03:38:09;;;;;;;3.47;1.40;;;;;;;14.69;78.70;100151.96;1726033;81;21992;-68
2022/05/21 03:40:35;;;;;;;3.27;1.00;;;;;;;14.86;78.69;100148.38;1755963;81;20976;-68
2022/05/21 03:43:01;;;;;;;2.17;1.12;;;;;;;15.21;78.64;100158.44;1756033;81;20972;-68
2022/05/21 03:45:27;;;;;;;1.32;1.12;;;;;;;15.78;78.64;100163.20;1755903;81;20990;-68
2022/05/21 03:47:53;;;;;;;1.75;1.25;;;;;;;16.31;78.18;100162.04;1755307;81;21453;-68
2022/05/21 03:50:23;;;;;;;4.25;1.20;;;;;;;17.02;77.72;100163.27;1754270;80;21296;-68
2022/05/21 03:52:49;;;;;;;1.82;1.12;;;;;;;17.77;76.95;100158.72;1758498;80;21050;-68
2022/05/21 03:55:15;;;;;;;1.45;1.12;;;;;;;18.25;76.13;100161.02;1756736;81;20888;-68
2022/05/21 03:57:41;;;;;;;1.47;0.93;;;;;;;18.56;74.91;100167.31;1758295;80;21493;-69
2022/05/21 04:00:10;;;;;;;2.10;1.12;;;;;;;18.29;73.77;100166.27;1758289;80;20904;-69
2022/05/21 04:02:37;;;;;;;1.10;1.00;;;;;;;17.26;73.13;100163.81;1764619;80;21036;-68
2022/05/21 04:05:04;;;;;;;2.47;1.30;;;;;;;16.58;73.19;100176.75;1731679;81;20992;-68
2022/05/21 04:07:31;;;;;;;2.47;1.55;;;;;;;16.11;73.20;100176.59;1728061;82;20936;-69
2022/05/21 04:09:57;;;;;;;2.77;1.32;;;;;;;15.92;73.23;100187.19;1727651;83;21480;-68
2022/05/21 04:12:23;;;;;;;1.75;0.90;;;;;;;15.94;73.55;100178.89;1728331;81;21082;-68
2022/05/21 04:14:49;;;;;;;4.87;1.22;;;;;;;15.86;73.28;100189.37;1727742;81;21032;-68
2022/05/21 04:17:16;;;;;;;1.85;1.27;;;;;;;15.73;73.28;100189.37;1728191;83;20990;-69
2022/05/21 04:19:42;;;;;;;4.15;1.12;;;;;;;15.55;73.27;100192.41;1727660;81;20988;-68
2022/05/21 04:22:09;;;;;;;2.00;0.88;;;;;;;15.39;73.37;100189.05;1727896;81;21306;-68
2022/05/21 04:24:35;;;;;;;1.42;1.10;;;;;;;15.25;73.44;100186.04;1722111;81;21552;-68
2022/05/21 04:27:00;;;;;;;3.17;0.80;;;;;;;15.15;73.51;100195.02;1718515;83;21150;-68
2022/05/21 04:29:27;;;;;;;1.00;0.80;;;;;;;15.04;73.57;100199.64;1718607;83;20922;-68
2022/05/21 04:31:53;;;;;;;4.58;0.90;;;;;;;14.97;73.63;100202.83;1695146;81;21017;-68
2022/05/21 04:34:19;;;;;;;1.87;0.80;;;;;;;14.93;73.64;100201.07;1737194;81;21046;-68
2022/05/21 04:36:45;;;;;;;3.15;1.37;;;;;;;14.88;73.71;100199.49;1728853;81;20909;-68
2022/05/21 04:39:10;;;;;;;1.50;0.90;;;;;;;14.84;73.75;100210.34;1728748;83;21113;-68
2022/05/21 04:41:36;;;;;;;3.42;1.65;;;;;;;14.82;73.77;100200.31;1726545;81;20906;-68
2022/05/21 04:44:03;;;;;;;0.80;0.80;;;;;;;14.81;73.79;100217.98;1728474;82;20911;-69
2022/05/21 04:46:31;;;;;;;2.75;1.35;;;;;;;15.23;73.75;100224.39;1726677;81;20995;-68
2022/05/21 04:48:57;;;;;;;1.52;0.95;;;;;;;15.36;73.61;100227.09;1727493;83;21066;-68
2022/05/21 04:51:23;;;;;;;2.42;1.05;;;;;;;15.26;73.60;100230.69;1726929;81;21828;-68
2022/05/21 04:53:49;;;;;;;5.75;1.20;;;;;;;15.22;73.56;100224.07;1727270;81;20872;-69
2022/05/21 04:56:15;;;;;;;2.40;0.98;;;;;;;15.74;73.41;100230.02;1729254;83;20976;-69
2022/05/21 04:58:41;;;;;;;2.12;0.60;;;;;;;16.45;73.17;100235.48;1729385;83;20952;-69
2022/05/21 05:01:08;;;;;;;6.85;1.77;;;;;;;16.80;72.84;100233.31;1736243;81;21472;-69
2022/05/21 05:03:34;;;;;;;3.12;0.93;;;;;;;16.70;72.53;100227.56;1728367;81;21247;-69
2022/05/21 05:06:00;;;;;;;2.20;0.85;;;;;;;16.71;72.01;100229.22;1745522;81;21048;-69
2022/05/21 05:08:26;;;;;;;3.47;0.70;;;;;;;17.15;71.65;100231.88;1709170;81;21069;-69
2022/05/21 05:10:52;;;;;;;4.20;1.10;;;;;;;16.97;70.90;100235.81;1723117;81;20904;-69
2022/05/21 05:13:18;;;;;;;0.80;0.80;;;;;;;16.58;70.29;100234.64;1731089;81;21468;-68
2022/05/21 05:15:45;;;;;;;3.85;0.82;;;;;;;16.63;69.92;100236.19;1732770;82;21191;-69
2022/05/21 05:18:14;;;;;;;0.80;0.60;;;;;;;17.03;69.21;100241.68;1732662;82;21058;-69
2022/05/21 05:20:41;;;;;;;3.45;1.02;;;;;;;16.92;68.62;100247.23;1731370;81;21043;-68
2022/05/21 05:23:07;;;;;;;2.35;1.00;;;;;;;16.75;68.37;100240.68;1721788;82;21022;-69
2022/05/21 05:25:33;;;;;;;2.50;0.90;;;;;;;16.35;68.17;100242.67;1732869;82;21074;-69
2022/05/21 05:28:00;;;;;;;6.15;0.90;;;;;;;15.98;68.10;100247.37;1732735;82;21226;-69
2022/05/21 05:30:26;;;;;;;4.03;1.05;;;;;;;15.64;68.11;100263.73;1734555;81;21007;-69
2022/05/21 05:32:52;;;;;;;1.75;0.95;;;;;;;15.42;68.20;100258.51;1734838;81;21039;-69
2022/05/21 05:35:18;;;;;;;3.45;0.88;;;;;;;15.27;68.31;100255.70;1732631;81;20947;-68
2022/05/21 05:37:44;;;;;;;0.88;0.88;;;;;;;15.14;68.43;100257.00;1732943;82;20964;-69
2022/05/21 05:40:17;;;;;;;3.75;1.05;;;;;;;15.06;68.55;100258.00;1732631;82;21134;-68
2022/05/21 05:42:43;;;;;;;4.70;0.85;;;;;;;14.98;68.64;100256.86;1700894;83;20955;-68
2022/05/21 05:45:11;;;;;;;2.05;0.75;;;;;;;14.93;68.66;100260.66;1701683;84;21089;-68
2022/05/21 05:47:37;;;;;;;3.87;0.88;;;;;;;14.91;68.71;100256.84;1679091;83;21090;-68
2022/05/21 05:50:04;;;;;;;6.90;0.90;;;;;;;14.88;68.70;100268.50;1672279;85;20955;-68
2022/05/21 05:52:30;;;;;;;1.10;0.75;;;;;;;14.80;68.63;100263.30;1686481;82;21180;-68
2022/05/21 05:54:56;;;;;;;1.00;0.90;;;;;;;14.75;68.60;100252.32;1669422;84;21662;-68
2022/05/21 05:57:23;;;;;;;3.72;1.12;;;;;;;14.73;68.62;100259.77;1701631;84;22183;-68
2022/05/21 05:59:50;;;;;;;1.67;1.12;;;;;;;14.72;68.58;100269.66;1701457;84;21034;-68
2022/05/21 06:05:19;;;;;;;1.92;1.37;;;;;;;14.73;68.48;100270.50;1642097;86;21585;-68
2022/05/21 06:07:55;;;;;;;3.12;0.95;;;;;;;14.72;68.29;100276.89;1695290;84;21047;-69
2022/05/21 06:10:25;;;;;;;1.30;0.78;;;;;;;14.80;68.16;100268.67;1701602;83;21069;-68
2022/05/21 06:12:51;;;;;;;2.47;1.00;;;;;;;14.88;67.92;100271.19;1699477;83;21488;-69
2022/05/21 06:15:17;;;;;;;1.02;0.80;;;;;;;14.92;67.65;100278.63;1702838;83;21751;-68
2022/05/21 06:17:43;;;;;;;2.37;1.02;;;;;;;15.20;67.55;100274.47;1685854;84;21499;-68
2022/05/21 06:20:16;;;;;;;1.35;0.98;;;;;;;15.85;67.26;100276.97;1713760;82;21018;-68
2022/05/21 06:22:42;;;;;;;4.45;1.00;;;;;;;16.21;66.72;100277.37;1713585;82;21451;-69
2022/05/21 06:25:09;;;;;;;2.70;0.70;;;;;;;16.47;66.21;100281.34;1683412;85;21096;-69
2022/05/21 06:27:35;;;;;;;3.70;1.37;;;;;;;16.74;65.52;100275.92;1699929;83;21050;-69
2022/05/21 06:30:01;;;;;;;1.12;1.00;;;;;;;16.99;64.89;100283.59;1701391;84;21265;-69
2022/05/21 06:32:27;;;;;;;5.42;0.80;;;;;;;17.07;63.68;100273.89;1701385;84;21507;-69
2022/05/21 06:34:53;;;;;;;3.33;1.15;;;;;;;17.06;62.90;100277.66;1665924;84;21005;-69
2022/05/21 06:37:19;;;;;;;4.12;1.40;;;;;;;17.18;62.38;100290.73;1669380;83;21530;-69
2022/05/21 06:39:45;;;;;;;0.70;0.60;;;;;;;17.27;61.45;100281.37;1697739;83;20941;-69
2022/05/21 06:42:12;;;;;;;1.50;0.80;;;;;;;17.44;60.88;100294.64;1688791;83;20965;-69
2022/05/21 06:44:38;;;;;;;2.37;0.50;;;;;;;17.73;60.54;100293.75;1695687;83;21137;-69
2022/05/21 06:47:05;;;;;;;5.08;1.00;;;;;;;17.83;59.94;100289.52;1702793;83;21105;-69
2022/05/21 06:49:31;;;;;;;7.72;0.60;;;;;;;17.90;59.40;100303.79;1677416;84;21022;-69
2022/05/21 06:51:58;;;;;;;3.20;0.60;;;;;;;17.97;58.61;100303.73;1677390;84;21061;-69
2022/05/21 06:54:24;;;;;;;1.77;0.60;;;;;;;18.02;57.88;100309.27;1676827;83;21097;-69
2022/05/21 06:56:50;;;;;;;1.77;0.60;;;;;;;17.70;57.01;100318.44;1663916;84;22588;-69
2022/05/21 06:59:17;;;;;;;14.15;0.90;;;;;;;17.56;56.96;100333.05;1667704;83;21001;-69
2022/05/21 07:01:43;;;;;;;3.98;1.00;;;;;;;17.48;56.54;100317.44;1677230;84;21575;-69
2022/05/21 07:04:09;;;;;;;8.40;1.10;;;;;;;17.37;55.64;100301.94;1679149;84;21130;-69
2022/05/21 07:09:21;;;;;;;2.90;0.70;;;;;;;17.54;54.91;100337.30;1671259;84;21029;-69
2022/05/21 07:11:49;;;;;;;2.75;0.68;;;;;;;17.77;54.48;100333.55;1667879;84;21022;-68
2022/05/21 07:14:15;;;;;;;5.80;1.00;;;;;;;18.05;54.44;100348.52;1673241;84;21559;-69
2022/05/21 07:16:41;;;;;;;6.53;1.20;;;;;;;18.17;54.13;100334.07;1665604;84;21055;-68
2022/05/21 07:19:07;;;;;;;3.42;0.72;;;;;;;18.15;53.78;100336.18;1672002;84;21022;-68
2022/05/21 07:21:33;;;;;;;2.55;0.72;;;;;;;18.19;53.82;100341.41;1671339;84;21106;-68
2022/05/21 07:23:59;;;;;;;4.17;0.60;;;;;;;18.21;53.74;100350.14;1667942;84;21669;-68
2022/05/21 07:26:25;;;;;;;1.62;0.85;;;;;;;17.86;53.76;100353.00;1677659;84;21047;-69
2022/05/21 07:28:51;;;;;;;3.25;1.02;;;;;;;17.51;53.94;100361.17;1679101;84;21034;-69
2022/05/21 07:31:18;;;;;;;3.40;0.93;;;;;;;17.05;54.28;100364.08;1677283;85;21481;-69
2022/05/21 07:33:44;;;;;;;5.78;1.57;;;;;;;16.98;54.76;100366.28;1667894;84;21066;-68
2022/05/21 07:36:10;;;;;;;5.55;0.88;;;;;;;16.79;55.09;100379.78;1675934;84;21548;-68
2022/05/21 07:38:37;;;;;;;4.60;0.80;;;;;;;16.67;55.41;100396.30;1670314;84;21676;-68
2022/05/21 07:41:02;;;;;;;3.98;1.00;;;;;;;16.39;55.64;100389.26;1683483;84;21029;-68
2022/05/21 07:43:30;;;;;;;2.58;0.85;;;;;;;16.65;55.99;100386.23;1672052;84;21376;-68
2022/05/21 07:45:57;;;;;;;2.05;0.88;;;;;;;16.92;55.86;100390.55;1654983;84;21568;-68
2022/05/21 07:48:24;;;;;;;4.20;1.30;;;;;;;16.73;55.36;100406.22;1666467;83;21051;-68
2022/05/21 07:50:54;;;;;;;1.90;0.93;;;;;;;16.43;54.98;100407.16;1660386;84;21105;-68
2022/05/21 07:53:24;;;;;;;3.20;0.85;;;;;;;16.33;55.05;100396.80;1669938;84;21012;-68
2022/05/21 07:55:51;;;;;;;2.62;1.05;;;;;;;16.35;55.20;100412.23;1668006;84;21153;-69
2022/05/21 07:58:20;;;;;;;1.98;0.90;;;;;;;16.41;55.28;100414.09;1665031;84;21564;-68
2022/05/21 08:00:46;;;;;;;6.83;1.10;;;;;;;16.47;55.45;100432.61;1662685;84;21580;-68
2022/05/21 08:03:13;;;;;;;5.95;1.55;;;;;;;16.61;55.39;100436.16;1670835;84;21038;-67
2022/05/21 08:05:40;;;;;;;2.00;0.88;;;;;;;16.53;55.04;100436.36;1669203;84;21126;-69
2022/05/21 08:08:07;;;;;;;5.08;0.82;;;;;;;16.43;54.80;100436.23;1671218;84;21808;-69
2022/05/21 08:10:38;;;;;;;1.55;0.82;;;;;;;16.39;54.57;100443.61;1642033;85;21131;-68
2022/05/21 08:13:06;;;;;;;4.03;0.70;;;;;;;16.61;54.54;100440.19;1641979;85;21058;-68
2022/05/21 08:15:32;;;;;;;4.83;0.75;;;;;;;16.85;54.32;100449.81;1646602;85;21493;-69
2022/05/21 08:17:59;;;;;;;7.22;1.05;;;;;;;17.23;53.83;100441.87;1649400;85;21597;-69
2022/05/21 08:20:25;;;;;;;3.25;0.88;;;;;;;17.52;53.55;100447.78;1640025;85;21238;-69
2022/05/21 08:28:19;;;;;;;3.55;1.10;;;;;;;17.89;52.06;100447.00;1639966;85;21076;-68
2022/05/21 08:30:47;;;;;;;2.58;0.90;;;;;;;17.89;51.43;100459.14;1650247;85;21133;-69
2022/05/21 08:33:14;;;;;;;4.08;1.37;;;;;;;17.78;51.08;100450.37;1651348;85;21274;-68
2022/05/21 08:35:40;;;;;;;5.05;0.85;;;;;;;17.64;50.92;100452.31;1633110;86;21547;-69
2022/05/21 08:38:07;;;;;;;5.03;0.95;;;;;;;17.68;50.96;100461.64;1639475;85;21023;-69
2022/05/21 08:41:00;;;;;;;4.95;0.82;;;;;;;17.81;50.80;100466.12;1643228;85;21518;-69
2022/05/21 08:44:04;;;;;;;6.62;0.93;;;;;;;18.09;50.74;100458.50;1645122;85;22255;-69
2022/05/21 08:46:53;;;;;;;3.12;0.82;;;;;;;18.07;49.81;100463.30;1643863;85;21215;-69
2022/05/21 08:49:41;;;;;;;1.37;0.70;;;;;;;17.96;48.68;100465.33;1649534;85;21044;-69
2022/05/21 08:52:25;;;;;;;2.77;1.07;;;;;;;17.72;48.29;100462.87;1641034;85;21113;-69
2022/05/21 08:54:52;;;;;;;2.37;0.93;;;;;;;17.39;48.13;100462.95;1639727;85;21482;-70
2022/05/21 08:57:41;;;;;;;3.67;1.05;;;;;;;17.42;48.39;100477.36;1645945;85;21155;-69
2022/05/21 09:00:15;;;;;;;5.62;1.52;;;;;;;17.94;48.73;100476.88;1649683;85;21108;-69
2022/05/21 09:02:41;;;;;;;1.67;1.20;;;;;;;18.40;48.74;100468.48;1646289;85;21065;-69
2022/05/21 09:05:11;;;;;;;2.83;0.95;;;;;;;18.46;48.63;100469.78;1645960;85;21100;-69
2022/05/21 09:08:05;;;;;;;3.62;0.95;;;;;;;18.38;48.37;100468.69;1641765;85;21058;-71
2022/05/21 09:11:01;;;;;;;1.60;0.70;;;;;;;18.07;48.58;100463.30;1673064;84;21070;-69
2022/05/21 09:13:52;;;;;;;2.37;0.75;;;;;;;17.66;48.82;100485.83;1681021;84;21130;-69
2022/05/21 09:19:04;;;;;;;2.83;1.15;;;;;;;17.87;49.48;100478.78;1702225;83;21034;-68
2022/05/21 09:21:32;;;;;;;4.40;1.00;;;;;;;18.40;49.70;100478.73;1703795;83;21077;-69
2022/05/21 09:24:01;;;;;;;6.97;1.42;;;;;;;18.34;49.54;100484.19;1687932;84;21558;-69
2022/05/21 09:26:48;;;;;;;4.47;1.07;;;;;;;18.19;49.45;100473.69;1673217;84;21153;-69
2022/05/21 09:29:26;;;;;;;3.92;1.20;;;;;;;17.88;49.11;100487.16;1703210;83;21108;-68
2022/05/21 09:31:57;;;;;;;3.98;1.00;;;;;;;18.16;49.28;100476.83;1703000;83;21053;-69
2022/05/21 09:34:31;;;;;;;5.20;1.30;;;;;;;18.54;49.27;100467.37;1702154;83;21001;-69
2022/05/21 09:36:58;;;;;;;6.75;1.17;;;;;;;18.65;48.87;100482.01;1699972;82;21024;-69
2022/05/21 09:39:38;;;;;;;2.75;1.10;;;;;;;18.37;48.57;100479.18;1699424;83;21190;-69
2022/05/21 09:45:23;;;;;;;2.37;0.85;;;;;;;18.85;48.60;100480.81;1700794;82;21014;-70
2022/05/21 09:48:07;;;;;;;7.15;1.32;;;;;;;18.96;48.50;100479.27;1703107;83;21056;-69
2022/05/21 09:50:54;;;;;;;6.25;0.90;;;;;;;18.75;48.36;100471.00;1699988;83;21520;-69
2022/05/21 09:53:30;;;;;;;4.50;0.95;;;;;;;18.20;47.95;100484.80;1705730;82;21092;-69
2022/05/21 09:56:09;;;;;;;2.87;1.12;;;;;;;17.92;47.94;100481.64;1700144;83;21058;-69
2022/05/21 09:58:39;;;;;;;2.70;0.80;;;;;;;17.88;48.05;100488.51;1701139;83;21025;-69
2022/05/21 10:01:06;;;;;;;3.45;0.88;;;;;;;17.92;48.23;100501.88;1698562;83;21037;-70
2022/05/21 10:03:47;;;;;;;5.62;1.40;;;;;;;17.69;48.07;100501.58;1702516;83;21016;-68
2022/05/21 10:06:31;;;;;;;5.28;0.93;;;;;;;17.51;48.20;100500.05;1699040;82;21200;-68
2022/05/21 10:12:10;;;;;;;3.15;1.00;;;;;;;17.46;48.48;100511.47;1689393;83;21121;-69
2022/05/21 10:14:41;;;;;;;1.65;1.00;;;;;;;17.28;48.54;100506.73;1691824;83;21081;-69
2022/05/21 10:17:34;;;;;;;3.00;1.15;;;;;;;17.21;48.75;100509.97;1692935;83;21044;-69
2022/05/21 10:20:20;;;;;;;5.83;1.22;;;;;;;17.24;48.97;100512.23;1696522;83;21118;-69
2022/05/21 10:23:18;;;;;;;8.48;1.72;;;;;;;17.30;49.13;100514.63;1698069;83;21069;-68
2022/05/21 10:26:01;;;;;;;4.25;1.62;;;;;;;17.24;49.17;100510.09;1694814;83;21017;-68
2022/05/21 10:28:54;;;;;;;4.40;1.02;;;;;;;17.26;49.38;100516.09;1691990;83;21028;-69
2022/05/21 10:32:01;;;;;;;5.05;1.47;;;;;;;17.28;49.50;100507.25;1691111;83;21057;-69
2022/05/21 10:34:35;;;;;;;2.55;1.22;;;;;;;17.40;49.66;100510.97;1694404;83;21252;-69
2022/05/21 10:37:31;;;;;;;3.15;1.05;;;;;;;17.57;49.78;100514.89;1712451;83;21012;-69
2022/05/21 10:40:26;;;;;;;4.30;1.37;;;;;;;17.67;49.79;100500.95;1691738;83;20995;-69
2022/05/21 10:43:36;;;;;;;4.97;1.22;;;;;;;17.75;49.71;100507.46;1674048;83;21091;-69
2022/05/21 10:46:27;;;;;;;7.47;1.05;;;;;;;17.65;49.67;100510.62;1685102;85;21067;-69
2022/05/21 10:49:37;;;;;;;5.28;1.20;;;;;;;17.41;49.61;100517.52;1677539;83;21089;-70
2022/05/21 10:52:30;;;;;;;2.50;1.22;;;;;;;17.23;49.69;100513.81;1687374;84;21002;-70
2022/05/21 10:55:26;;;;;;;2.95;1.45;;;;;;;17.09;49.86;100508.97;1685947;83;21496;-69
2022/05/21 10:58:16;;;;;;;4.47;1.77;;;;;;;17.09;50.00;100511.66;1685098;85;21035;-70
2022/05/21 11:01:04;;;;;;;;;;;;;;;17.25;50.19;100508.52;1687373;85;21015;-69
2022/05/21 11:03:57;;;;;;;4.00;1.10;;;;;;;17.41;50.26;100508.08;1685255;83;21173;-69
2022/05/21 11:07:08;;;;;;;6.20;1.62;;;;;;;17.47;50.25;100503.17;1685220;85;21040;-70
2022/05/21 11:09:42;;;;;;;5.20;1.47;;;;;;;17.66;50.15;100497.97;1705604;82;20979;-70
2022/05/21 11:12:28;;;;;;;3.80;1.12;;;;;;;17.63;50.01;100506.45;1697959;82;21054;-69
2022/05/21 11:15:01;;;;;;;2.47;1.00;;;;;;;17.51;49.93;100509.48;1702661;82;20986;-69
2022/05/21 11:17:53;;;;;;;3.12;1.60;;;;;;;17.60;50.02;100496.09;1704112;84;21237;-69
2022/05/21 11:20:24;;;;;;;3.62;1.00;;;;;;;17.77;49.90;100505.37;1704287;84;21027;-70
2022/05/21 11:23:15;;;;;;;3.83;0.98;;;;;;;18.22;49.70;100496.23;1673584;85;21058;-70
2022/05/21 11:25:45;;;;;;;2.08;1.00;;;;;;;18.58;49.62;100498.82;1713250;82;21007;-70
2022/05/21 11:28:20;;;;;;;2.00;0.90;;;;;;;18.85;49.23;100497.55;1727009;82;21109;-70
2022/05/21 11:30:46;;;;;;;2.80;1.07;;;;;;;18.65;48.60;100497.70;1669675;85;21805;-70
2022/05/21 11:38:51;;;;;;;2.12;1.02;;;;;;;19.02;48.24;100495.94;1705600;82;21085;-70
2022/05/21 11:41:30;;;;;;;3.62;0.90;;;;;;;18.97;48.02;100501.16;1673838;85;21071;-70
2022/05/21 11:47:18;;;;;;;1.92;0.72;;;;;;;18.94;47.59;100498.91;1712849;82;21017;-70
2022/05/21 11:50:01;;;;;;;3.90;1.02;;;;;;;19.15;47.32;100478.22;1704146;82;21105;-71
2022/05/21 11:52:39;;;;;;;6.08;1.07;;;;;;;19.26;46.94;100492.88;1709751;83;21006;-70
2022/05/21 11:55:28;;;;;;;3.80;1.00;;;;;;;19.29;46.98;100490.55;1704743;84;21046;-70
2022/05/21 11:58:04;;;;;;;3.60;0.72;;;;;;;19.21;46.96;100481.37;1704391;84;21870;-71
2022/05/21 12:00:42;;;;;;;2.42;0.90;;;;;;;18.79;46.85;100484.91;1675895;82;21112;-69
2022/05/21 12:03:12;;;;;;;1.55;0.98;;;;;;;18.42;46.96;100503.67;1703852;82;21478;-69
2022/05/21 12:05:46;;;;;;;3.72;0.80;;;;;;;18.11;47.14;100513.11;1704690;84;20990;-69
2022/05/21 12:08:26;;;;;;;2.10;1.07;;;;;;;17.78;47.18;100505.16;1686543;85;21003;-69
2022/05/21 12:11:09;;;;;;;2.08;1.20;;;;;;;17.57;47.41;100515.41;1657076;85;21879;-69
2022/05/21 12:13:57;;;;;;;7.42;5.35;;;;;;;17.47;47.70;100523.41;1669241;85;21019;-69
2022/05/21 12:16:29;;;;;;;6.75;3.27;;;;;;;17.40;47.94;100526.64;1672037;84;21107;-69
2022/05/21 12:19:00;;;;;;;2.90;1.42;;;;;;;17.27;48.22;100548.23;1673677;83;21015;-68
2022/05/21 12:21:43;;;;;;;7.10;5.22;;;;;;;17.03;48.68;100556.13;1687548;83;21559;-68